Wednesday, October 18, 2017, 3:38 AM EDT
Back to Local

KCEF, Chicopee Falls / Westover Air Force Base

Location: Chicopee, MA, United States Lat: 42.2
Local Time: 3:38 AM EDT ( 7:38 GMT) Lon: -72.533
Time Zone: US/Eastern Elev: 246 ft

Show me the last for .
Show Decoded

2017-10-18 02:56 METAR KCEF 180656Z AUTO 00000KT 10SM CLR 05/02 A3021 RMK AO2 SLP237 T00530023 =
2017-10-18 01:56 METAR KCEF 180556Z AUTO 00000KT 10SM CLR 05/03 A3021 RMK AO2 SLP237 T00510026
                 10078 20047 58006 =
2017-10-18 00:56 METAR KCEF 180456Z AUTO 16005KT 10SM CLR 06/02 A3022 RMK AO2 SLP241 T00590024
                 401511021 =
2017-10-17 23:56 METAR KCEF 180356Z AUTO 17005KT 10SM CLR 05/02 A3023 RMK AO2 SLP244 T00530021 =
2017-10-17 22:56 METAR KCEF 180256Z 19005KT 10SM CLR 06/02 A3023 RMK AO2A SLPNO T00570018 50004 =
2017-10-17 21:56 METAR KCEF 180156Z 19006KT 10SM CLR 07/01 A3024 RMK AO2A SLP248 T00670014 =
2017-10-17 20:56 METAR KCEF 180056Z 18006KT 10SM CLR 07/01 A3023 RMK AO2A SLP245 T00650006 =
2017-10-17 19:56 METAR KCEF 172356Z COR 17004KT 10SM CLR 08/00 A3022 RMK AO2A SLP241 T00791003
                 10151 20073 53007 COR 0001 =
2017-10-17 18:56 METAR KCEF 172256Z 18008KT 10SM CLR 07/00 A3020 RMK AO2A SLP235 T00740004 =
2017-10-17 17:56 METAR KCEF 172156Z 16005KT 10SM CLR 11/00 A3019 RMK AO2A SLP231 T01121003 =
2017-10-17 16:56 METAR KCEF 172056Z 19009KT 10SM CLR 14/M01 A3020 RMK AO2A SLP234 T01421014 =
2017-10-17 15:56 METAR KCEF 171956Z 18005KT 10SM CLR 15/M03 A3020 RMK AO2A SLP234 T01511028 =
2017-10-17 14:56 METAR KCEF 171856Z 21005KT 10SM CLR 14/M03 A3022 RMK AO2A SLPNO T01401033 =
2017-10-17 13:56 METAR KCEF 171756Z 25003KT 10SM CLR 13/M05 A3025 RMK AO2A SLPNO T01251046 10125
                 21004 =
2017-10-17 12:56 METAR KCEF 171656Z 00000KT 10SM CLR 11/M04 A3027 RMK AO2A SLPNO T01101039 =
2017-10-17 11:56 METAR KCEF 171556Z 32003KT 10SM CLR 10/M04 A3029 RMK AO2A SLPNO T00991041 =
2017-10-17 10:56 METAR KCEF 171456Z 02003KT 10SM CLR 09/M03 A3030 RMK AO2A SLPNO T00861033 58003
                 =
2017-10-17 07:56 METAR KCEF 171156Z 05003KT 10SM CLR 00/M01 A3031 RMK AO2A SLP272 T10051014 10010
                 21021 52022 =
2017-10-17 06:56 METAR KCEF 171056Z AUTO 00000KT 10SM CLR M01/M02 A3028 RMK AO2 SLP262 T10091019
                 =
2017-10-17 05:56 METAR KCEF 170956Z AUTO 00000KT 10SM CLR 00/M01 A3027 RMK AO2 SLP258 T10051015 =
2017-10-17 04:56 METAR KCEF 170856Z AUTO 07003KT 10SM CLR 00/M01 A3024 RMK AO2 SLP248 T00001010 =

Support USWX by starting your Amazon purchase here.